Terminal Aerodrome Forecast
Issued by NWS

Home | Current Version | Previous Version | Text Only | Print | Product List | Glossary On
Versions: 1 2 3 4 5 6 7 8 9 10 11 12 13
000
FTUS46 KLOX 190552
TAFWJF
TAF
KWJF 190552Z 1906/2006 26010KT P6SM BKN150
     FM191800 26015G23KT P6SM BKN050 BKN100
     FM192200 27022G32KT P6SM OVC025
     FM200400 26015KT P6SM BKN025=

USA.gov is the U.S. government's official web portal to all federal, state and local government web resources and services.